createdAt,value
2019-02-20T00:01:20.018Z,5.83
2019-02-20T00:03:48.930Z,6.70
2019-02-20T00:06:17.845Z,6.63
2019-02-20T00:08:46.786Z,6.17
2019-02-20T00:11:15.930Z,7.03
2019-02-20T00:13:44.840Z,7.00
2019-02-20T00:16:13.792Z,6.30
2019-02-20T00:18:42.707Z,6.80
2019-02-20T00:21:11.685Z,6.87
2019-02-20T00:23:40.569Z,6.83
2019-02-20T00:26:09.478Z,7.33
2019-02-20T00:28:38.469Z,7.00
2019-02-20T00:31:07.393Z,7.13
2019-02-20T00:33:36.643Z,6.53
2019-02-20T00:36:05.553Z,7.80
2019-02-20T00:38:34.485Z,7.60
2019-02-20T00:41:03.407Z,7.87
2019-02-20T00:43:32.440Z,7.17
2019-02-20T00:46:20.822Z,7.80
2019-02-20T00:49:00.677Z,7.13
2019-02-20T00:51:38.969Z,10.67
2019-02-20T00:54:09.427Z,8.57
2019-02-20T00:56:38.585Z,8.07
2019-02-20T00:59:07.577Z,7.83
2019-02-20T01:01:36.566Z,9.27
2019-02-20T01:04:05.590Z,7.37
2019-02-20T01:06:34.637Z,9.57
2019-02-20T01:09:04.763Z,8.23
2019-02-20T01:11:33.604Z,8.20
2019-02-20T01:14:02.811Z,7.80
2019-02-20T01:16:31.790Z,8.27
2019-02-20T01:19:00.697Z,8.57
2019-02-20T01:21:29.670Z,8.00
2019-02-20T01:23:58.549Z,8.10
2019-02-20T01:26:27.462Z,7.57
2019-02-20T01:28:56.658Z,8.03
2019-02-20T01:31:25.498Z,8.07
2019-02-20T01:33:54.417Z,7.33
2019-02-20T01:36:23.366Z,8.30
2019-02-20T01:38:52.265Z,7.87
2019-02-20T01:41:21.177Z,8.90
2019-02-20T01:43:50.177Z,8.77
2019-02-20T01:46:19.085Z,7.67
2019-02-20T01:48:48.098Z,8.40
2019-02-20T01:51:17.104Z,7.50
2019-02-20T01:53:46.018Z,7.80
2019-02-20T01:56:14.930Z,7.00
2019-02-20T01:58:43.871Z,7.23
2019-02-20T02:01:12.709Z,7.13
2019-02-20T02:03:41.614Z,7.83
2019-02-20T02:06:10.482Z,6.93
2019-02-20T02:08:39.385Z,6.83
2019-02-20T02:11:08.876Z,6.97
2019-02-20T02:13:37.726Z,6.73
2019-02-20T02:16:06.647Z,6.93
2019-02-20T02:18:35.525Z,7.00
2019-02-20T02:21:04.455Z,5.73
2019-02-20T02:23:33.368Z,6.23
2019-02-20T02:26:10.501Z,6.37
2019-02-20T02:28:33.601Z,6.70
2019-02-20T02:31:02.538Z,6.47
2019-02-20T02:33:31.462Z,7.17
2019-02-20T02:36:01.487Z,7.73
2019-02-20T02:38:30.337Z,7.30
2019-02-20T02:40:59.330Z,6.73
2019-02-20T02:43:28.215Z,6.97
2019-02-20T02:45:57.195Z,5.27
2019-02-20T02:48:26.453Z,5.70
2019-02-20T02:50:55.691Z,5.90
2019-02-20T02:53:30.606Z,5.80
2019-02-20T02:55:55.374Z,7.30
2019-02-20T02:58:24.227Z,5.90
2019-02-20T03:00:54.325Z,6.27
2019-02-20T03:03:23.272Z,5.83
2019-02-20T03:05:52.233Z,5.00
2019-02-20T03:08:23.139Z,6.40
2019-02-20T03:10:52.090Z,6.50
2019-02-20T03:13:21.073Z,5.60
2019-02-20T03:15:50.300Z,6.57
2019-02-20T03:18:19.238Z,7.50
2019-02-20T03:20:48.149Z,7.10
2019-02-20T03:23:16.991Z,7.73
2019-02-20T03:25:45.991Z,6.60
2019-02-20T03:28:15.167Z,5.97
2019-02-20T03:30:44.082Z,6.97
2019-02-20T03:33:13.086Z,6.90
2019-02-20T03:35:42.159Z,6.33
2019-02-20T03:38:11.154Z,6.97
2019-02-20T03:40:40.082Z,6.70
2019-02-20T03:43:09.067Z,6.23
2019-02-20T03:45:38.330Z,6.10
2019-02-20T03:48:07.323Z,6.53
2019-02-20T03:50:36.306Z,5.93
2019-02-20T03:53:05.294Z,6.10
2019-02-20T03:55:34.327Z,6.63
2019-02-20T03:58:03.241Z,6.97
2019-02-20T04:00:32.486Z,6.50
2019-02-20T04:03:01.771Z,5.73
2019-02-20T04:05:30.708Z,6.60
2019-02-20T04:07:59.622Z,6.63
2019-02-20T04:10:28.477Z,6.37
2019-02-20T04:12:57.373Z,5.50
2019-02-20T04:15:26.539Z,5.47
2019-02-20T04:17:55.395Z,7.23
2019-02-20T04:20:24.615Z,5.70
2019-02-20T04:22:53.530Z,6.30
2019-02-20T04:25:22.394Z,7.10
2019-02-20T04:27:51.385Z,7.73
2019-02-20T04:30:20.469Z,6.00
2019-02-20T04:32:49.318Z,7.23
2019-02-20T04:35:18.269Z,16.90
2019-02-20T04:37:47.261Z,8.87
2019-02-20T04:40:16.309Z,17.93
2019-02-20T04:42:45.244Z,13.10
2019-02-20T04:45:14.386Z,5.60
2019-02-20T04:47:43.237Z,8.13
2019-02-20T04:50:12.226Z,8.40
2019-02-20T04:52:41.133Z,7.50
2019-02-20T04:55:10.235Z,11.80
2019-02-20T04:57:40.970Z,18.93
2019-02-20T05:00:11.720Z,7.97
2019-02-20T05:02:41.121Z,8.13
2019-02-20T05:05:10.184Z,8.07
2019-02-20T05:07:39.104Z,6.40
2019-02-20T05:10:09.346Z,7.40
2019-02-20T05:12:38.398Z,7.10
2019-02-20T05:15:07.576Z,6.10
2019-02-20T05:17:36.431Z,6.07
2019-02-20T05:20:05.719Z,6.17
2019-02-20T05:22:34.634Z,6.37
2019-02-20T05:25:03.650Z,7.80
2019-02-20T05:27:32.561Z,7.63
2019-02-20T05:30:01.838Z,10.43
2019-02-20T05:32:30.689Z,5.67
2019-02-20T05:34:59.593Z,6.63
2019-02-20T05:37:28.515Z,7.20
2019-02-20T05:39:57.383Z,7.43
2019-02-20T05:42:26.302Z,8.23
2019-02-20T05:44:55.138Z,7.20
2019-02-20T05:47:24.066Z,22.83
2019-02-20T05:49:52.907Z,8.53
2019-02-20T05:52:22.047Z,7.10
2019-02-20T05:54:50.996Z,7.73
2019-02-20T05:57:19.869Z,6.93
2019-02-20T05:59:48.874Z,7.13
2019-02-20T06:02:17.826Z,7.60
2019-02-20T06:04:46.911Z,7.73
2019-02-20T06:07:16.330Z,7.70
2019-02-20T06:09:45.261Z,7.77
2019-02-20T06:12:14.099Z,9.00
2019-02-20T06:14:43.089Z,8.20
2019-02-20T06:17:11.941Z,7.97
2019-02-20T06:19:40.783Z,9.60
2019-02-20T06:22:09.788Z,9.70
2019-02-20T06:24:44.200Z,9.23
2019-02-20T06:27:09.325Z,9.40
2019-02-20T06:29:38.170Z,8.00
2019-02-20T06:32:07.099Z,10.73
2019-02-20T06:34:36.013Z,11.17
2019-02-20T06:37:05.001Z,8.67
2019-02-20T06:39:34.086Z,9.30
2019-02-20T06:42:03.007Z,8.93
2019-02-20T06:44:31.865Z,14.50
2019-02-20T06:47:00.952Z,16.27
2019-02-20T06:49:29.974Z,64.83
2019-02-20T06:51:58.954Z,39.33
2019-02-20T06:54:28.227Z,40.80
2019-02-20T06:56:57.075Z,11.60
2019-02-20T06:59:25.986Z,11.00
2019-02-20T07:01:55.290Z,10.37
2019-02-20T07:04:24.470Z,10.50
2019-02-20T07:07:17.493Z,11.20
2019-02-20T07:10:28.838Z,10.37
2019-02-20T07:13:28.937Z,10.50
2019-02-20T07:16:36.978Z,9.40
2019-02-20T07:19:23.724Z,9.37
2019-02-20T07:22:07.782Z,10.60
2019-02-20T07:25:02.817Z,11.30
2019-02-20T07:28:11.069Z,18.43
2019-02-20T07:30:40.310Z,14.13
2019-02-20T07:33:09.302Z,14.67
2019-02-20T07:35:38.299Z,15.23
2019-02-20T07:38:07.302Z,11.30
2019-02-20T07:40:36.146Z,12.57
2019-02-20T07:43:05.085Z,12.00
2019-02-20T07:45:33.975Z,11.97
2019-02-20T07:48:03.262Z,13.40
2019-02-20T07:50:32.254Z,11.80
2019-02-20T07:53:01.194Z,12.10
2019-02-20T07:55:30.041Z,10.60
2019-02-20T07:57:58.962Z,8.73
2019-02-20T08:00:27.902Z,8.47
2019-02-20T08:02:56.746Z,8.33
2019-02-20T08:05:25.752Z,13.70
2019-02-20T08:07:54.755Z,12.50
2019-02-20T08:10:23.580Z,8.33
2019-02-20T08:12:52.499Z,9.20
2019-02-20T08:15:21.589Z,9.47
2019-02-20T08:17:50.438Z,8.50
2019-02-20T08:20:19.662Z,10.23
2019-02-20T08:22:48.677Z,9.83
2019-02-20T08:25:22.823Z,8.50
2019-02-20T08:27:48.221Z,9.57
2019-02-20T08:30:17.488Z,10.53
2019-02-20T08:32:46.336Z,10.73
2019-02-20T08:35:15.263Z,11.17
2019-02-20T08:37:44.203Z,10.50
2019-02-20T08:40:14.715Z,9.47
2019-02-20T08:42:43.558Z,9.30
2019-02-20T08:45:12.876Z,11.30
2019-02-20T08:47:41.802Z,12.47
2019-02-20T08:50:11.408Z,11.07
2019-02-20T08:52:40.302Z,11.77
2019-02-20T08:55:09.379Z,7.97
2019-02-20T08:57:38.390Z,8.63
2019-02-20T09:00:09.471Z,8.50
2019-02-20T09:02:38.390Z,7.20
2019-02-20T09:05:08.119Z,7.80
2019-02-20T09:07:37.118Z,7.40
2019-02-20T09:10:06.826Z,6.30
2019-02-20T09:12:35.661Z,7.07
2019-02-20T09:15:04.912Z,6.87
2019-02-20T09:17:33.827Z,6.47
2019-02-20T09:20:02.748Z,6.00
2019-02-20T09:22:31.798Z,6.37
2019-02-20T09:25:00.937Z,6.17
2019-02-20T09:27:29.860Z,5.97
2019-02-20T09:29:58.704Z,6.10
2019-02-20T09:32:27.546Z,6.47
2019-02-20T09:34:56.426Z,5.00
2019-02-20T09:37:25.290Z,6.47
2019-02-20T09:39:54.281Z,7.13
2019-02-20T09:42:23.131Z,6.90
2019-02-20T09:44:52.066Z,7.27
2019-02-20T09:47:21.296Z,8.90
2019-02-20T09:49:50.236Z,9.40
2019-02-20T09:52:19.265Z,9.07
2019-02-20T09:54:48.186Z,9.50
2019-02-20T09:57:17.194Z,10.63
2019-02-20T09:59:46.417Z,10.00
2019-02-20T10:02:15.278Z,10.20
2019-02-20T10:04:44.113Z,9.87
2019-02-20T10:07:13.001Z,12.30
2019-02-20T10:09:41.845Z,11.70
2019-02-20T10:12:10.797Z,12.20
2019-02-20T10:14:40.366Z,11.20
2019-02-20T10:17:09.733Z,12.63
2019-02-20T10:19:38.663Z,11.63
2019-02-20T10:22:07.714Z,11.70
2019-02-20T10:24:36.650Z,12.90
2019-02-20T10:27:05.645Z,12.40
2019-02-20T10:29:34.609Z,12.40
2019-02-20T10:32:03.566Z,14.00
2019-02-20T10:34:32.499Z,13.67
2019-02-20T10:37:01.568Z,13.87
2019-02-20T10:39:30.458Z,14.10
2019-02-20T10:41:59.514Z,13.50
2019-02-20T10:44:28.474Z,13.20
2019-02-20T10:46:57.506Z,14.80
2019-02-20T10:49:26.499Z,14.40
2019-02-20T10:51:55.465Z,15.33
2019-02-20T10:54:24.391Z,12.73
2019-02-20T10:56:53.364Z,15.47
2019-02-20T10:59:22.315Z,20.37
2019-02-20T11:01:51.241Z,18.37
2019-02-20T11:04:20.118Z,14.03
2019-02-20T11:06:49.066Z,11.50
2019-02-20T11:09:18.118Z,14.23
2019-02-20T11:11:47.403Z,19.47
2019-02-20T11:14:16.423Z,20.17
2019-02-20T11:16:45.353Z,17.70
2019-02-20T11:19:15.671Z,17.70
2019-02-20T11:21:44.824Z,14.70
2019-02-20T11:24:13.864Z,14.33
2019-02-20T11:26:52.383Z,14.77
2019-02-20T11:29:13.467Z,17.60
2019-02-20T11:31:42.386Z,15.53
2019-02-20T11:34:11.390Z,10.97
2019-02-20T11:36:40.584Z,11.20
2019-02-20T11:39:11.527Z,11.77
2019-02-20T11:41:40.259Z,13.37
2019-02-20T11:44:09.101Z,11.97
2019-02-20T11:46:38.237Z,12.80
2019-02-20T11:49:07.173Z,12.33
2019-02-20T11:51:36.554Z,14.03
2019-02-20T11:54:05.569Z,15.20
2019-02-20T11:56:34.488Z,13.67
2019-02-20T11:59:03.421Z,14.20
2019-02-20T12:01:32.365Z,13.40
2019-02-20T12:04:01.371Z,13.60
2019-02-20T12:06:30.473Z,13.17
2019-02-20T12:08:59.419Z,13.40
2019-02-20T12:11:28.346Z,14.50
2019-02-20T12:13:57.666Z,14.00
2019-02-20T12:16:27.321Z,12.00
2019-02-20T12:18:56.414Z,13.80
2019-02-20T12:21:25.466Z,12.80
2019-02-20T12:23:54.458Z,12.60
2019-02-20T12:26:24.066Z,13.00
2019-02-20T12:28:53.340Z,12.23
2019-02-20T12:31:22.536Z,13.30
2019-02-20T12:33:52.306Z,12.27
2019-02-20T12:36:21.642Z,12.00
2019-02-20T12:38:50.865Z,13.30
2019-02-20T12:41:19.797Z,12.10
2019-02-20T12:43:48.822Z,11.60
2019-02-20T12:46:17.671Z,13.00
2019-02-20T12:48:46.957Z,14.20
2019-02-20T12:51:15.902Z,12.40
2019-02-20T12:53:45.531Z,12.63
2019-02-20T12:56:14.468Z,12.97
2019-02-20T12:58:43.493Z,11.00
2019-02-20T13:01:12.486Z,14.20
2019-02-20T13:03:41.530Z,11.30
2019-02-20T13:06:10.658Z,12.00
2019-02-20T13:08:39.509Z,12.47
2019-02-20T13:11:08.512Z,11.83
2019-02-20T13:13:37.906Z,11.50
2019-02-20T13:16:09.531Z,10.73
2019-02-20T13:18:37.896Z,11.33
2019-02-20T13:21:06.991Z,10.57
2019-02-20T13:23:36.000Z,11.03
2019-02-20T13:26:05.046Z,11.23
2019-02-20T13:28:34.283Z,11.50
2019-02-20T13:31:03.277Z,9.93
2019-02-20T13:33:32.215Z,11.50
2019-02-20T13:36:01.230Z,9.43
2019-02-20T13:38:30.094Z,9.67
2019-02-20T13:40:59.006Z,8.87
2019-02-20T13:43:28.313Z,8.00
2019-02-20T13:45:57.309Z,8.50
2019-02-20T13:48:26.526Z,8.33
2019-02-20T13:50:55.400Z,7.20
2019-02-20T13:53:24.421Z,8.67
2019-02-20T13:55:53.741Z,8.03
2019-02-20T13:58:22.835Z,7.20
2019-02-20T14:00:51.834Z,6.60
2019-02-20T14:03:20.757Z,8.10
2019-02-20T14:05:49.787Z,7.27
2019-02-20T14:08:19.081Z,6.80
2019-02-20T14:10:52.102Z,7.10
2019-02-20T14:13:23.670Z,5.90
2019-02-20T14:15:57.404Z,7.17
2019-02-20T14:18:26.385Z,6.33
2019-02-20T14:20:55.354Z,6.97
2019-02-20T14:23:24.869Z,6.90
2019-02-20T14:25:53.926Z,6.30
2019-02-20T14:28:23.410Z,5.87
2019-02-20T14:30:52.445Z,6.43
2019-02-20T14:33:21.418Z,6.63
2019-02-20T14:35:50.930Z,6.57
2019-02-20T14:38:19.777Z,8.23
2019-02-20T14:40:48.622Z,7.87
2019-02-20T14:43:17.559Z,7.43
2019-02-20T14:45:46.765Z,8.50
2019-02-20T14:48:15.690Z,8.53
2019-02-20T14:50:44.629Z,7.40
2019-02-20T14:53:13.619Z,8.00
2019-02-20T14:55:44.636Z,8.57
2019-02-20T14:58:13.637Z,8.80
2019-02-20T15:00:43.015Z,9.30
2019-02-20T15:03:11.853Z,9.40
2019-02-20T15:05:41.002Z,9.80
2019-02-20T15:08:09.996Z,8.17
2019-02-20T15:10:38.878Z,7.67
2019-02-20T15:13:07.913Z,8.13
2019-02-20T15:15:36.857Z,10.70
2019-02-20T15:18:05.790Z,10.17
2019-02-20T15:20:35.625Z,9.13
2019-02-20T15:23:04.749Z,10.23
2019-02-20T15:25:33.682Z,9.27
2019-02-20T15:28:04.241Z,9.30
2019-02-20T15:30:33.872Z,10.30
2019-02-20T15:33:02.802Z,9.87
2019-02-20T15:35:31.930Z,12.53
2019-02-20T15:38:00.917Z,11.23
2019-02-20T15:40:30.179Z,9.00
2019-02-20T15:42:59.210Z,9.40
2019-02-20T15:45:28.749Z,8.33
2019-02-20T15:47:58.282Z,8.10
2019-02-20T15:50:27.983Z,8.07
2019-02-20T15:52:56.987Z,7.57
2019-02-20T15:55:25.917Z,9.53
2019-02-20T15:57:54.910Z,10.23
2019-02-20T16:00:25.418Z,8.20
2019-02-20T16:02:54.790Z,8.77
2019-02-20T16:05:23.818Z,10.30
2019-02-20T16:07:53.508Z,8.87
2019-02-20T16:10:22.817Z,20.53
2019-02-20T16:12:51.844Z,15.80
2019-02-20T16:15:20.841Z,7.60
2019-02-20T16:17:49.782Z,7.70
2019-02-20T16:20:18.731Z,12.67
2019-02-20T16:22:47.586Z,11.57
2019-02-20T16:25:16.614Z,10.80
2019-02-20T16:27:47.453Z,8.27
2019-02-20T16:30:16.384Z,7.50
2019-02-20T16:32:45.405Z,6.97
2019-02-20T16:35:15.052Z,11.27
2019-02-20T16:37:44.065Z,25.83
2019-02-20T16:40:13.333Z,13.40
2019-02-20T16:42:42.365Z,12.13
2019-02-20T16:45:22.350Z,9.97
2019-02-20T16:47:51.729Z,9.43
2019-02-20T16:50:21.190Z,21.10
2019-02-20T16:52:50.199Z,16.07
2019-02-20T16:55:19.680Z,18.67
2019-02-20T16:57:56.188Z,23.67
2019-02-20T17:00:21.363Z,16.43
2019-02-20T17:02:50.790Z,15.30
2019-02-20T17:05:19.803Z,25.53
2019-02-20T17:07:49.270Z,15.73
2019-02-20T17:10:18.286Z,18.07
2019-02-20T17:12:47.287Z,21.90
2019-02-20T17:15:16.390Z,18.90
2019-02-20T17:17:45.419Z,23.33
2019-02-20T17:20:14.872Z,23.23
2019-02-20T17:22:44.341Z,23.43
2019-02-20T17:25:13.675Z,28.53
2019-02-20T17:27:42.749Z,24.43
2019-02-20T17:30:12.780Z,12.40
2019-02-20T17:32:41.821Z,14.60
2019-02-20T17:35:10.965Z,13.67
2019-02-20T17:37:39.965Z,8.67
2019-02-20T17:40:09.372Z,7.50
2019-02-20T17:42:38.354Z,7.63
2019-02-20T17:45:08.811Z,11.27
2019-02-20T17:47:38.177Z,8.30
2019-02-20T17:50:10.586Z,6.80
2019-02-20T17:52:39.505Z,11.67
2019-02-20T17:55:08.849Z,8.50
2019-02-20T17:57:37.841Z,17.10
2019-02-20T18:00:08.975Z,7.67
2019-02-20T18:02:37.997Z,7.67
2019-02-20T18:05:07.069Z,10.13
2019-02-20T18:07:36.078Z,15.30
2019-02-20T18:10:05.391Z,7.57
2019-02-20T18:12:34.385Z,6.93
2019-02-20T18:15:03.441Z,5.80
2019-02-20T18:17:32.534Z,6.30
2019-02-20T18:20:01.461Z,7.70
2019-02-20T18:22:30.581Z,5.47
2019-02-20T18:24:59.725Z,6.50
2019-02-20T18:27:28.642Z,5.33
2019-02-20T18:29:57.607Z,12.67
2019-02-20T18:32:26.477Z,10.77
2019-02-20T18:34:55.395Z,13.33
2019-02-20T18:37:24.470Z,10.77
2019-02-20T18:39:53.411Z,11.10
2019-02-20T18:42:22.417Z,6.40
2019-02-20T18:44:51.344Z,8.13
2019-02-20T18:47:20.371Z,11.07
2019-02-20T18:49:49.549Z,14.23
2019-02-20T18:52:19.662Z,10.70
2019-02-20T18:54:48.665Z,9.40
2019-02-20T18:57:17.655Z,10.13
2019-02-20T18:59:46.770Z,10.97
2019-02-20T19:02:15.761Z,8.23
2019-02-20T19:04:44.759Z,7.70
2019-02-20T19:07:14.489Z,7.03
2019-02-20T19:09:46.654Z,7.80
2019-02-20T19:12:52.580Z,9.90
2019-02-20T19:15:55.842Z,7.50
2019-02-20T19:19:02.722Z,6.60
2019-02-20T19:21:57.130Z,7.87
2019-02-20T19:25:02.239Z,7.97
2019-02-20T19:28:11.420Z,7.63
2019-02-20T19:31:10.542Z,8.07
2019-02-20T19:34:11.333Z,9.23
2019-02-20T19:36:57.036Z,7.33
2019-02-20T19:39:47.555Z,7.43
2019-02-20T19:42:52.588Z,6.70
2019-02-20T19:45:33.370Z,6.10
2019-02-20T19:48:26.911Z,7.47
2019-02-20T19:51:06.178Z,9.27
2019-02-20T19:54:04.051Z,7.70
2019-02-20T19:57:10.923Z,6.50
2019-02-20T20:00:17.788Z,7.10
2019-02-20T20:03:16.096Z,7.30
2019-02-20T20:06:38.868Z,7.43
2019-02-20T20:09:31.705Z,8.23
2019-02-20T20:12:36.742Z,6.77
2019-02-20T20:15:27.592Z,9.07
2019-02-20T20:18:34.100Z,6.70
2019-02-20T20:21:13.312Z,6.20
2019-02-20T20:24:35.193Z,6.83
2019-02-20T20:27:53.643Z,5.67
2019-02-20T20:31:17.317Z,5.67
2019-02-20T20:34:33.727Z,7.90
2019-02-20T20:37:32.283Z,7.40
2019-02-20T20:40:35.202Z,5.97
2019-02-20T20:43:39.951Z,7.33
2019-02-20T20:46:34.962Z,7.70
2019-02-20T20:49:53.838Z,7.53
2019-02-20T20:53:03.681Z,7.93
2019-02-20T20:56:08.922Z,7.90
2019-02-20T20:59:18.133Z,7.07
2019-02-20T21:02:14.863Z,8.40
2019-02-20T21:05:20.842Z,8.57
2019-02-20T21:08:10.845Z,7.60
2019-02-20T21:11:10.490Z,7.70
2019-02-20T21:14:26.735Z,8.77
2019-02-20T21:17:32.657Z,9.57
2019-02-20T21:20:24.198Z,8.00
2019-02-20T21:23:52.890Z,6.97
2019-02-20T21:27:09.090Z,7.20
2019-02-20T21:30:25.597Z,7.53
2019-02-20T21:33:31.553Z,7.00
2019-02-20T21:36:36.735Z,6.87
2019-02-20T21:39:33.402Z,7.47
2019-02-20T21:42:21.571Z,7.40
2019-02-20T21:45:42.646Z,7.07
2019-02-20T21:49:07.680Z,8.47
2019-02-20T21:52:13.675Z,6.70
2019-02-20T21:55:34.762Z,8.10
2019-02-20T21:58:35.827Z,8.53
2019-02-20T22:01:34.928Z,7.60
2019-02-20T22:04:11.049Z,8.73
2019-02-20T22:06:49.979Z,27.80
2019-02-20T22:09:58.417Z,18.50
2019-02-20T22:13:28.973Z,11.87
2019-02-20T22:16:39.477Z,33.17
2019-02-20T22:19:28.990Z,10.30
2019-02-20T22:22:36.359Z,9.00
2019-02-20T22:25:39.175Z,25.80
2019-02-20T22:28:41.134Z,10.73
2019-02-20T22:31:47.247Z,10.20
2019-02-20T22:34:49.566Z,9.30
2019-02-20T22:38:00.081Z,9.67
2019-02-20T22:41:12.411Z,14.80
2019-02-20T22:44:37.521Z,15.40
2019-02-20T22:47:35.313Z,7.47
2019-02-20T22:50:26.739Z,7.60
2019-02-20T22:53:25.946Z,7.97
2019-02-20T22:56:32.756Z,10.00
2019-02-20T22:59:32.760Z,8.40
2019-02-20T23:03:07.422Z,8.53
2019-02-20T23:05:54.128Z,9.93
2019-02-20T23:09:13.193Z,9.27
2019-02-20T23:12:16.213Z,9.00
2019-02-20T23:15:02.347Z,8.63
2019-02-20T23:17:31.282Z,10.50
2019-02-20T23:20:00.419Z,8.20
2019-02-20T23:22:29.836Z,10.20
2019-02-20T23:24:58.782Z,9.00
2019-02-20T23:27:27.714Z,9.20
2019-02-20T23:29:57.048Z,10.37
2019-02-20T23:32:25.995Z,10.63
2019-02-20T23:34:55.013Z,8.90
2019-02-20T23:37:24.122Z,9.90
2019-02-20T23:39:53.083Z,10.20
2019-02-20T23:42:22.346Z,13.10
2019-02-20T23:44:51.290Z,9.63
2019-02-20T23:47:20.159Z,10.90
2019-02-20T23:49:49.159Z,9.83
2019-02-20T23:52:18.202Z,11.30
2019-02-20T23:54:47.154Z,10.07
2019-02-20T23:57:16.202Z,10.83
2019-02-20T23:59:45.200Z,9.90
